createdAt,value
2023-04-19T00:01:21.184Z,6.50
2023-04-19T00:03:54.658Z,7.03
2023-04-19T00:06:29.908Z,5.92
2023-04-19T00:09:04.304Z,6.95
2023-04-19T00:11:37.568Z,7.00
2023-04-19T00:14:11.060Z,7.08
2023-04-19T00:16:44.698Z,8.00
2023-04-19T00:19:18.550Z,6.85
2023-04-19T00:21:51.960Z,8.25
2023-04-19T00:24:25.124Z,6.65
2023-04-19T00:26:59.190Z,7.03
2023-04-19T00:29:32.654Z,6.80
2023-04-19T00:32:06.855Z,6.40
2023-04-19T00:34:40.379Z,7.37
2023-04-19T00:37:14.023Z,6.80
2023-04-19T00:39:47.449Z,6.00
2023-04-19T00:42:22.055Z,6.83
2023-04-19T00:44:55.169Z,6.65
2023-04-19T00:47:28.882Z,6.08
2023-04-19T00:50:02.838Z,6.15
2023-04-19T00:52:36.786Z,8.93
2023-04-19T00:55:11.538Z,5.90
2023-04-19T00:57:45.641Z,6.45
2023-04-19T01:00:20.157Z,7.00
2023-04-19T01:02:54.025Z,6.70
2023-04-19T01:05:27.245Z,5.58
2023-04-19T01:08:01.009Z,6.33
2023-04-19T01:10:34.391Z,6.42
2023-04-19T01:13:07.847Z,6.22
2023-04-19T01:15:43.040Z,6.37
2023-04-19T01:18:16.168Z,5.67
2023-04-19T01:20:49.644Z,6.58
2023-04-19T01:23:23.376Z,6.58
2023-04-19T01:25:56.598Z,6.25
2023-04-19T01:28:31.276Z,6.12
2023-04-19T01:31:04.821Z,6.03
2023-04-19T01:33:38.156Z,6.45
2023-04-19T01:36:13.934Z,8.78
2023-04-19T01:38:48.523Z,6.78
2023-04-19T01:41:23.068Z,6.60
2023-04-19T01:43:56.441Z,6.03
2023-04-19T01:46:29.753Z,5.97
2023-04-19T01:49:03.338Z,5.92
2023-04-19T01:51:36.636Z,6.10
2023-04-19T01:54:10.015Z,5.83
2023-04-19T01:56:43.503Z,6.12
2023-04-19T01:59:16.869Z,6.53
2023-04-19T02:01:50.579Z,6.53
2023-04-19T02:04:24.051Z,5.78
2023-04-19T02:06:57.304Z,5.95
2023-04-19T02:09:30.783Z,6.10
2023-04-19T02:12:03.999Z,6.00
2023-04-19T02:14:38.076Z,6.85
2023-04-19T02:17:12.365Z,6.03
2023-04-19T02:19:46.025Z,6.45
2023-04-19T02:22:19.305Z,5.50
2023-04-19T02:24:53.964Z,7.72
2023-04-19T02:27:28.719Z,6.12
2023-04-19T02:30:02.158Z,5.95
2023-04-19T02:32:37.075Z,6.58
2023-04-19T02:35:13.961Z,6.80
2023-04-19T02:37:47.465Z,7.53
2023-04-19T02:40:22.496Z,5.90
2023-04-19T02:42:56.507Z,6.62
2023-04-19T02:45:30.791Z,6.20
2023-04-19T02:48:04.356Z,6.83
2023-04-19T02:50:39.864Z,6.40
2023-04-19T02:53:13.690Z,6.35
2023-04-19T02:55:47.602Z,5.87
2023-04-19T02:58:22.354Z,6.30
2023-04-19T03:00:57.536Z,6.42
2023-04-19T03:03:31.214Z,5.53
2023-04-19T03:06:05.239Z,6.20
2023-04-19T03:08:38.909Z,5.25
2023-04-19T03:11:16.280Z,5.60
2023-04-19T03:13:49.885Z,6.15
2023-04-19T03:16:23.139Z,5.87
2023-04-19T03:18:56.947Z,5.60
2023-04-19T03:21:31.572Z,5.15
2023-04-19T03:24:05.168Z,5.37
2023-04-19T03:26:39.043Z,6.20
2023-04-19T03:29:12.473Z,6.08
2023-04-19T03:31:47.714Z,5.55
2023-04-19T03:34:21.366Z,6.15
2023-04-19T03:36:54.872Z,5.45
2023-04-19T03:39:28.699Z,5.10
2023-04-19T03:42:03.784Z,5.95
2023-04-19T03:44:41.345Z,5.42
2023-04-19T03:47:15.043Z,5.22
2023-04-19T03:49:50.052Z,5.60
2023-04-19T03:52:23.570Z,5.50
2023-04-19T03:54:56.872Z,5.92
2023-04-19T03:57:32.196Z,5.58
2023-04-19T04:00:08.969Z,5.20
2023-04-19T04:02:45.132Z,5.87
2023-04-19T04:05:19.205Z,5.37
2023-04-19T04:07:58.749Z,6.62
2023-04-19T04:10:32.616Z,5.00
2023-04-19T04:13:06.311Z,5.08
2023-04-19T04:15:41.948Z,6.15
2023-04-19T04:18:17.941Z,6.15
2023-04-19T04:20:54.304Z,4.80
2023-04-19T04:23:32.717Z,5.97
2023-04-19T04:26:10.301Z,5.17
2023-04-19T04:28:46.102Z,6.00
2023-04-19T04:31:19.478Z,4.65
2023-04-19T04:33:56.280Z,4.65
2023-04-19T04:36:31.343Z,5.22
2023-04-19T04:39:10.634Z,5.10
2023-04-19T04:44:47.493Z,5.03
2023-04-19T04:47:22.288Z,5.08
2023-04-19T04:49:57.242Z,4.90
2023-04-19T04:52:31.063Z,4.62
2023-04-19T04:55:07.551Z,4.42
2023-04-19T04:57:42.183Z,4.92
2023-04-19T05:00:18.547Z,4.72
2023-04-19T05:02:53.915Z,4.42
2023-04-19T05:05:28.718Z,4.47
2023-04-19T05:08:02.338Z,3.87
2023-04-19T05:10:36.150Z,5.45
2023-04-19T05:13:10.799Z,5.17
2023-04-19T05:15:45.301Z,4.50
2023-04-19T05:18:19.577Z,4.90
2023-04-19T05:20:52.886Z,4.40
2023-04-19T05:23:27.995Z,5.35
2023-04-19T05:26:01.277Z,4.05
2023-04-19T05:28:34.798Z,4.87
2023-04-19T05:31:16.373Z,4.87
2023-04-19T05:33:51.340Z,4.90
2023-04-19T05:36:24.983Z,5.62
2023-04-19T05:38:58.421Z,6.08
2023-04-19T05:41:31.765Z,5.28
2023-04-19T05:44:05.489Z,4.30
2023-04-19T05:46:39.622Z,4.90
2023-04-19T05:49:15.070Z,5.17
2023-04-19T05:52:05.556Z,4.97
2023-04-19T05:54:49.484Z,4.50
2023-04-19T05:57:22.650Z,4.45
2023-04-19T05:59:56.083Z,4.60
2023-04-19T06:02:31.131Z,4.35
2023-04-19T06:05:09.361Z,5.58
2023-04-19T06:07:43.999Z,3.90
2023-04-19T06:10:17.080Z,4.40
2023-04-19T06:12:50.697Z,4.72
2023-04-19T06:15:26.103Z,5.17
2023-04-19T06:18:00.135Z,5.58
2023-04-19T06:20:33.561Z,4.55
2023-04-19T06:23:07.242Z,4.62
2023-04-19T06:25:41.372Z,5.10
2023-04-19T06:28:14.931Z,5.17
2023-04-19T06:30:49.392Z,6.40
2023-04-19T06:33:22.588Z,5.55
2023-04-19T06:35:55.956Z,4.95
2023-04-19T06:38:29.365Z,5.55
2023-04-19T06:41:02.687Z,4.78
2023-04-19T06:43:36.126Z,4.35
2023-04-19T06:46:10.115Z,4.85
2023-04-19T06:48:43.546Z,4.55
2023-04-19T06:51:17.284Z,4.62
2023-04-19T06:53:52.102Z,4.33
2023-04-19T06:56:45.853Z,4.92
2023-04-19T06:59:21.577Z,4.75
2023-04-19T07:01:57.119Z,4.85
2023-04-19T07:04:31.529Z,4.67
2023-04-19T07:07:05.640Z,4.33
2023-04-19T07:09:39.321Z,4.65
2023-04-19T07:12:12.758Z,3.90
2023-04-19T07:14:46.166Z,3.60
2023-04-19T07:17:19.952Z,3.90
2023-04-19T07:19:53.437Z,4.78
2023-04-19T07:22:26.641Z,3.75
2023-04-19T07:24:59.893Z,4.42
2023-04-19T07:27:35.000Z,4.03
2023-04-19T07:30:10.448Z,4.15
2023-04-19T07:32:43.960Z,3.47
2023-04-19T07:35:17.560Z,3.67
2023-04-19T07:37:50.879Z,3.75
2023-04-19T07:40:24.423Z,3.77
2023-04-19T07:42:59.366Z,3.77
2023-04-19T07:45:33.834Z,2.75
2023-04-19T07:48:08.430Z,3.58
2023-04-19T07:50:42.027Z,3.60
2023-04-19T07:53:16.600Z,3.98
2023-04-19T07:55:50.022Z,3.50
2023-04-19T07:58:23.657Z,4.20
2023-04-19T08:00:57.345Z,3.40
2023-04-19T08:03:31.054Z,3.35
2023-04-19T08:06:07.264Z,3.17
2023-04-19T08:08:40.833Z,3.72
2023-04-19T08:11:14.412Z,3.55
2023-04-19T08:14:02.551Z,3.25
2023-04-19T08:17:01.392Z,3.80
2023-04-19T08:18:58.352Z,4.03
2023-04-19T08:21:40.688Z,3.60
2023-04-19T08:24:09.049Z,3.65
2023-04-19T08:26:42.695Z,2.95
2023-04-19T08:29:16.976Z,3.30
2023-04-19T08:31:51.172Z,3.55
2023-04-19T08:34:24.679Z,3.27
2023-04-19T08:37:04.006Z,3.52
2023-04-19T08:39:35.019Z,3.60
2023-04-19T08:42:24.600Z,3.90
2023-04-19T08:47:30.323Z,3.27
2023-04-19T08:50:11.259Z,3.52
2023-04-19T08:52:47.944Z,3.50
2023-04-19T08:57:45.626Z,3.80
2023-04-19T09:00:21.430Z,4.42
2023-04-19T09:02:56.270Z,3.25
2023-04-19T09:05:31.382Z,3.58
2023-04-19T09:08:25.696Z,3.92
2023-04-19T09:11:00.702Z,3.77
2023-04-19T09:13:36.962Z,3.75
2023-04-19T09:16:26.172Z,3.60
2023-04-19T09:19:15.249Z,3.37
2023-04-19T09:21:37.328Z,3.50
2023-04-19T09:24:11.658Z,3.45
2023-04-19T09:26:57.952Z,3.35
2023-04-19T09:29:31.747Z,4.10
2023-04-19T09:32:06.433Z,3.33
2023-04-19T09:34:43.098Z,2.80
2023-04-19T09:37:29.682Z,3.55
2023-04-19T09:39:52.506Z,3.33
2023-04-19T09:42:42.654Z,3.22
2023-04-19T09:47:39.656Z,3.25
2023-04-19T09:50:23.744Z,3.70
2023-04-19T09:52:51.731Z,3.40
2023-04-19T09:55:29.236Z,3.10
2023-04-19T09:58:02.600Z,3.77
2023-04-19T10:00:48.964Z,3.62
2023-04-19T10:03:13.754Z,3.40
2023-04-19T10:05:48.604Z,3.27
2023-04-19T10:08:22.856Z,3.67
2023-04-19T10:10:59.174Z,3.62
2023-04-19T10:13:32.542Z,3.30
2023-04-19T10:16:18.231Z,3.47
2023-04-19T10:18:42.726Z,3.70
2023-04-19T10:21:16.995Z,3.30
2023-04-19T10:23:51.459Z,3.33
2023-04-19T10:26:25.014Z,3.08
2023-04-19T10:28:59.016Z,3.02
2023-04-19T10:31:33.250Z,2.98
2023-04-19T10:34:08.515Z,3.47
2023-04-19T10:36:41.992Z,2.72
2023-04-19T10:39:43.039Z,3.12
2023-04-19T10:42:16.437Z,3.20
2023-04-19T10:45:24.418Z,3.02
2023-04-19T10:47:57.962Z,3.08
2023-04-19T10:50:32.579Z,3.00
2023-04-19T10:53:42.374Z,2.90
2023-04-19T10:56:17.275Z,2.90
2023-04-19T10:59:17.641Z,2.80
2023-04-19T11:01:57.313Z,3.33
2023-04-19T11:05:01.998Z,2.83
2023-04-19T11:07:42.040Z,2.20
2023-04-19T11:10:17.073Z,2.72
2023-04-19T11:12:52.229Z,3.33
2023-04-19T11:15:26.331Z,3.17
2023-04-19T11:18:11.899Z,3.50
2023-04-19T11:20:36.535Z,3.02
2023-04-19T11:23:18.982Z,2.70
2023-04-19T11:25:56.738Z,2.90
2023-04-19T11:28:30.295Z,3.05
2023-04-19T11:31:04.727Z,3.00
2023-04-19T11:33:38.967Z,3.00
2023-04-19T11:36:16.313Z,2.85
2023-04-19T11:38:50.489Z,2.80
2023-04-19T11:41:23.852Z,2.52
2023-04-19T11:43:57.563Z,3.52
2023-04-19T11:46:31.133Z,4.05
2023-04-19T11:49:04.724Z,3.27
2023-04-19T11:51:39.588Z,2.80
2023-04-19T11:54:19.452Z,2.90
2023-04-19T11:57:07.057Z,2.70
2023-04-19T11:59:41.019Z,3.37
2023-04-19T12:02:15.411Z,2.67
2023-04-19T12:04:49.171Z,2.10
2023-04-19T12:07:23.518Z,3.15
2023-04-19T12:09:56.975Z,2.75
2023-04-19T12:12:36.877Z,2.37
2023-04-19T12:15:12.288Z,3.12
2023-04-19T12:18:02.221Z,2.55
2023-04-19T12:20:37.009Z,3.90
2023-04-19T12:23:11.358Z,2.42
2023-04-19T12:25:47.579Z,3.08
2023-04-19T12:28:21.461Z,2.90
2023-04-19T12:30:55.039Z,2.80
2023-04-19T12:33:28.257Z,2.62
2023-04-19T12:36:29.700Z,3.15
2023-04-19T12:39:51.448Z,3.00
2023-04-19T12:42:28.014Z,2.67
2023-04-19T12:48:20.936Z,3.87
2023-04-19T12:50:54.625Z,2.52
2023-04-19T12:53:28.365Z,2.92
2023-04-19T12:56:01.970Z,3.00
2023-04-19T12:58:35.710Z,2.80
2023-04-19T13:01:09.533Z,3.12
2023-04-19T13:03:43.245Z,2.55
2023-04-19T13:06:17.017Z,2.75
2023-04-19T13:08:50.998Z,2.35
2023-04-19T13:11:24.785Z,3.20
2023-04-19T13:13:58.333Z,3.27
2023-04-19T13:16:31.781Z,3.02
2023-04-19T13:19:05.552Z,3.33
2023-04-19T13:21:39.086Z,2.83
2023-04-19T13:24:12.723Z,2.80
2023-04-19T13:29:29.197Z,3.67
2023-04-19T13:32:02.825Z,2.92
2023-04-19T13:34:36.593Z,2.85
2023-04-19T13:37:10.178Z,2.58
2023-04-19T13:39:44.360Z,2.92
2023-04-19T13:42:18.103Z,2.40
2023-04-19T13:44:58.593Z,3.35
2023-04-19T13:47:45.661Z,3.02
2023-04-19T13:50:51.235Z,2.90
2023-04-19T13:53:29.258Z,3.40
2023-04-19T13:56:02.740Z,3.63
2023-04-19T13:58:36.521Z,2.25
2023-04-19T14:01:10.359Z,2.80
2023-04-19T14:03:43.993Z,2.55
2023-04-19T14:06:17.822Z,2.67
2023-04-19T14:08:51.558Z,2.77
2023-04-19T14:11:26.400Z,2.33
2023-04-19T14:13:59.939Z,2.75
2023-04-19T14:16:33.530Z,3.10
2023-04-19T14:19:06.988Z,2.58
2023-04-19T14:21:40.508Z,2.60
2023-04-19T14:24:14.338Z,3.12
2023-04-19T14:26:56.872Z,2.30
2023-04-19T14:29:23.526Z,2.85
2023-04-19T14:32:01.267Z,2.62
2023-04-19T14:34:33.674Z,2.85
2023-04-19T14:37:07.200Z,2.87
2023-04-19T14:39:40.778Z,2.98
2023-04-19T14:42:14.808Z,2.77
2023-04-19T14:44:48.414Z,2.80
2023-04-19T14:47:22.360Z,2.70
2023-04-19T14:49:56.263Z,2.62
2023-04-19T14:52:30.357Z,2.83
2023-04-19T14:55:04.255Z,3.05
2023-04-19T14:57:37.944Z,3.12
2023-04-19T15:00:14.293Z,2.50
2023-04-19T15:02:47.882Z,2.67
2023-04-19T15:05:23.338Z,2.55
2023-04-19T15:07:57.450Z,2.70
2023-04-19T15:10:31.268Z,2.80
2023-04-19T15:13:08.045Z,2.72
2023-04-19T15:15:41.763Z,2.40
2023-04-19T15:18:15.063Z,2.83
2023-04-19T15:20:51.239Z,3.02
2023-04-19T15:23:26.502Z,2.58
2023-04-19T15:25:59.983Z,2.90
2023-04-19T15:28:36.254Z,3.45
2023-04-19T15:31:10.779Z,2.70
2023-04-19T15:33:44.410Z,2.47
2023-04-19T15:36:17.959Z,2.98
2023-04-19T15:38:51.692Z,2.75
2023-04-19T15:41:26.046Z,2.55
2023-04-19T15:44:00.182Z,3.22
2023-04-19T15:46:34.486Z,3.02
2023-04-19T15:49:08.289Z,3.50
2023-04-19T15:51:45.202Z,2.87
2023-04-19T15:54:23.260Z,3.00
2023-04-19T15:56:57.477Z,3.02
2023-04-19T15:59:31.663Z,2.35
2023-04-19T16:02:05.610Z,2.90
2023-04-19T16:04:39.265Z,3.08
2023-04-19T16:07:13.016Z,3.15
2023-04-19T16:09:46.596Z,3.47
2023-04-19T16:12:20.363Z,2.92
2023-04-19T16:14:54.060Z,3.05
2023-04-19T16:17:28.025Z,3.25
2023-04-19T16:20:01.949Z,2.90
2023-04-19T16:22:35.685Z,2.92
2023-04-19T16:25:11.590Z,3.33
2023-04-19T16:27:46.090Z,3.20
2023-04-19T16:30:19.696Z,3.27
2023-04-19T16:32:53.595Z,3.62
2023-04-19T16:35:27.972Z,3.72
2023-04-19T16:38:03.326Z,3.85
2023-04-19T16:40:37.188Z,3.47
2023-04-19T16:43:11.178Z,4.15
2023-04-19T16:45:45.016Z,4.60
2023-04-19T16:48:18.675Z,4.05
2023-04-19T16:50:54.076Z,4.33
2023-04-19T16:53:27.856Z,4.10
2023-04-19T16:56:03.664Z,3.90
2023-04-19T17:01:18.670Z,3.85
2023-04-19T17:03:53.940Z,5.17
2023-04-19T17:06:27.922Z,3.80
2023-04-19T17:09:04.522Z,3.52
2023-04-19T17:11:38.365Z,4.95
2023-04-19T17:14:11.981Z,4.65
2023-04-19T17:16:45.220Z,4.87
2023-04-19T17:19:19.139Z,4.70
2023-04-19T17:21:52.737Z,3.92
2023-04-19T17:24:26.417Z,3.98
2023-04-19T17:26:59.710Z,4.03
2023-04-19T17:29:33.098Z,4.50
2023-04-19T17:32:08.432Z,4.33
2023-04-19T17:34:42.025Z,4.28
2023-04-19T17:37:15.541Z,3.80
2023-04-19T17:39:48.805Z,5.75
2023-04-19T17:42:22.673Z,5.65
2023-04-19T17:44:56.601Z,5.75
2023-04-19T17:47:30.945Z,7.05
2023-04-19T17:50:11.014Z,5.12
2023-04-19T17:52:44.509Z,5.92
2023-04-19T17:55:20.636Z,5.90
2023-04-19T17:57:59.088Z,6.37
2023-04-19T18:00:45.768Z,6.60
2023-04-19T18:03:27.187Z,5.72
2023-04-19T18:06:03.848Z,6.28
2023-04-19T18:08:50.484Z,6.97
2023-04-19T18:11:28.276Z,5.90
2023-04-19T18:14:01.335Z,5.97
2023-04-19T18:16:35.260Z,6.83
2023-04-19T18:19:08.656Z,7.65
2023-04-19T18:21:42.442Z,8.78
2023-04-19T18:24:16.765Z,9.53
2023-04-19T18:26:50.093Z,8.70
2023-04-19T18:29:24.469Z,10.15
2023-04-19T18:31:58.155Z,8.20
2023-04-19T18:34:31.957Z,7.40
2023-04-19T18:37:07.041Z,8.00
2023-04-19T18:39:40.546Z,7.58
2023-04-19T18:42:14.230Z,9.33
2023-04-19T18:47:23.498Z,7.35
2023-04-19T18:50:05.380Z,7.75
2023-04-19T18:52:33.722Z,7.60
2023-04-19T18:55:08.940Z,7.47
2023-04-19T18:57:42.837Z,8.48
2023-04-19T19:00:18.830Z,6.90
2023-04-19T19:02:53.221Z,6.67
2023-04-19T19:05:27.823Z,6.42
2023-04-19T19:08:02.208Z,6.53
2023-04-19T19:13:12.125Z,6.03
2023-04-19T19:15:45.609Z,6.33
2023-04-19T19:18:19.445Z,6.45
2023-04-19T19:20:53.730Z,5.92
2023-04-19T19:26:04.186Z,5.78
2023-04-19T19:28:39.880Z,6.00
2023-04-19T19:31:15.131Z,6.17
2023-04-19T19:33:53.670Z,7.42
2023-04-19T19:36:25.003Z,6.97
2023-04-19T19:39:01.039Z,5.62
2023-04-19T19:44:11.033Z,4.78
2023-04-19T19:46:44.820Z,7.12
2023-04-19T19:51:58.260Z,6.12
2023-04-19T19:54:27.136Z,6.58
2023-04-19T19:57:48.309Z,4.90
2023-04-19T19:59:36.564Z,5.60
2023-04-19T20:02:10.999Z,6.53
2023-04-19T20:04:44.909Z,6.00
2023-04-19T20:07:29.362Z,6.00
2023-04-19T20:09:54.577Z,5.10
2023-04-19T20:12:28.392Z,5.67
2023-04-19T20:15:01.994Z,5.92
2023-04-19T20:17:36.419Z,6.85
2023-04-19T20:20:13.012Z,6.03
2023-04-19T20:22:47.955Z,5.70
2023-04-19T20:25:22.064Z,5.00
2023-04-19T20:27:58.011Z,5.50
2023-04-19T20:30:38.852Z,5.50
2023-04-19T20:33:15.695Z,5.25
2023-04-19T20:36:16.665Z,5.30
2023-04-19T20:38:50.796Z,5.60
2023-04-19T20:41:27.277Z,5.15
2023-04-19T20:44:01.503Z,6.42
2023-04-19T20:46:36.583Z,6.30
2023-04-19T20:49:10.401Z,6.30
2023-04-19T20:51:44.326Z,6.67
2023-04-19T20:54:18.456Z,6.33
2023-04-19T20:56:54.108Z,6.35
2023-04-19T20:59:27.783Z,6.37
2023-04-19T21:02:01.738Z,6.75
2023-04-19T21:04:38.935Z,6.17
2023-04-19T21:07:12.806Z,6.57
2023-04-19T21:09:46.327Z,6.00
2023-04-19T21:12:20.068Z,6.78
2023-04-19T21:14:53.752Z,6.55
2023-04-19T21:17:27.653Z,6.78
2023-04-19T21:20:02.385Z,6.87
2023-04-19T21:22:39.074Z,5.62
2023-04-19T21:25:14.240Z,6.05
2023-04-19T21:27:47.888Z,5.83
2023-04-19T21:30:23.895Z,6.15
2023-04-19T21:32:59.032Z,6.47
2023-04-19T21:35:33.864Z,6.12
2023-04-19T21:38:07.721Z,6.28
2023-04-19T21:40:41.530Z,6.78
2023-04-19T21:43:15.120Z,5.87
2023-04-19T21:45:48.410Z,5.95
2023-04-19T21:48:23.171Z,7.17
2023-04-19T21:50:56.794Z,6.30
2023-04-19T21:53:33.290Z,6.30
2023-04-19T21:56:08.574Z,6.83
2023-04-19T21:58:44.912Z,6.37
2023-04-19T22:01:22.122Z,5.97
2023-04-19T22:03:59.197Z,6.17
2023-04-19T22:06:33.920Z,6.83
2023-04-19T22:09:13.545Z,7.15
2023-04-19T22:11:47.131Z,5.37
2023-04-19T22:14:22.384Z,4.58
2023-04-19T22:16:56.790Z,6.87
2023-04-19T22:19:32.616Z,6.37
2023-04-19T22:22:06.507Z,5.85
2023-04-19T22:24:53.849Z,5.65
2023-04-19T22:27:15.932Z,6.72
2023-04-19T22:29:49.813Z,5.50
2023-04-19T22:32:23.862Z,4.85
2023-04-19T22:34:57.645Z,5.85
2023-04-19T22:37:31.558Z,4.55
2023-04-19T22:40:06.972Z,5.25
2023-04-19T22:42:40.867Z,5.33
2023-04-19T22:45:15.150Z,5.60
2023-04-19T22:47:49.430Z,5.75
2023-04-19T22:50:25.497Z,5.17
2023-04-19T22:52:59.027Z,5.70
2023-04-19T22:55:32.637Z,6.05
2023-04-19T22:58:06.593Z,5.42
2023-04-19T23:00:41.197Z,5.90
2023-04-19T23:03:14.972Z,5.10
2023-04-19T23:05:48.561Z,5.85
2023-04-19T23:08:22.151Z,4.67
2023-04-19T23:10:55.690Z,5.80
2023-04-19T23:13:29.556Z,5.72
2023-04-19T23:16:03.458Z,5.78
2023-04-19T23:18:37.158Z,4.90
2023-04-19T23:21:10.614Z,5.42
2023-04-19T23:23:44.456Z,5.78
2023-04-19T23:26:18.034Z,6.00
2023-04-19T23:28:51.860Z,5.78
2023-04-19T23:31:25.567Z,5.97
2023-04-19T23:33:59.252Z,5.80
2023-04-19T23:36:32.958Z,6.62
2023-04-19T23:39:06.665Z,6.78
2023-04-19T23:41:40.298Z,5.87
2023-04-19T23:44:13.620Z,5.15
2023-04-19T23:46:47.188Z,5.70
2023-04-19T23:49:20.942Z,5.85
2023-04-19T23:51:54.733Z,6.00
2023-04-19T23:54:28.374Z,5.58
2023-04-19T23:57:07.203Z,5.33
2023-04-19T23:59:40.580Z,6.47
